Hlavní strana
METAR-TAF:

METAR-TAF

Letiště :

Pécs, Maďarsko

zeměpisná šířka: 46-06N, zeměpisná délka: 018-14E, výška: 201 m

Aktuální stav počasí

Zpráva byla vytvořena před 45 minutami, v 16:15 UTC
Západojihozápadní vítr 3 kt
Teplota -4°C
Vlhkost vzduchu 93%
Tlak 1025 hPa
Viditelnost: 2000 m
Zataženo ve výšce 2000 ft
kouřmo

METAR: LHPP 171615Z 25003KT 2000 BR OVC020 M04/M05 Q1025

Čas: 18:00 (17:00 UTC)

Předpověď počasí

Zpráva byla vytvořena před 2 hodinami a 45 minutami, v 14:15 UTC
Předpověď platná od 17 v 15 UTC do 17 v 24 UTC
vítr z různých směrů 2 kt
Viditelnost: 5000 m
Zataženo ve výšce 2300 ft
kouřmo
Změna
od 17 v 16 UTC do 17 v 19 UTC
Viditelnost: 1200 m
Zataženo ve výšce 1000 ft
kouřmo

TAF: LHPP 171415Z 1715/1724 VRB02KT 5000 BR OVC023 BECMG 1716/1719 1200 FZBCFG BR OVC010

Stav a předpovědi počasí z více než 4 000 letišť (zprávy METAR a TAF).

Červené a žluté tečky na mapě představují dostupné meteorologické stanice.

Když kurzor umístíte na tečku, zobrazí se název stanice.

Pak kliknutím zobrazíte stav a předpověď počasí.

Chcete-li změnit mapu, kliknutím na zelené tlačítko se znaménkem +mapu přiblížíte, kliknutím na zelené tlačítko se znaménkem – mapu oddálíte a kliknutím na zelené šipky přejdete na sousední mapy.


METAR-TAF: